Terminal Aerodrome Forecast
Issued by NWS Charleston, WV

Current Version | Previous Version | Graphics & Text | Print | Product List | Glossary On
Versions: 1 2 3 4 5 6 7 8 9 10 11 12 13 14 15 16 17 18 19 20 21 22
772
FTUS41 KRLX 262322
TAFBKW
TAF
KBKW 262322Z 2700/2724 14007KT P6SM SKC
     FM270400 16010KT P6SM FEW250
     FM271700 19010KT P6SM BKN060
     FM272000 20009KT 3SM SHRA VCTS BKN035CB
     FM272200 21008KT P6SM BKN025
     FM272300 23007KT P6SM BKN050=

USA.gov is the U.S. government's official web portal to all federal, state and local government web resources and services.